Time;durP1;ratioP1;P1;durP2;ratioP2;P2;SDS_P1;SDS_P2;PMS_P1;PMS_P2;Temp;Humidity;BMP_temperature;BMP_pressure;BME280_temperature;BME280_humidity;BME280_pressure;Samples;Min_cycle;Max_cycle;Signal;HPM_P1;HPM_P2
2024/01/02 00:00:11;;;;;;;;;;;;;;;;;;5072456;28;20242;-71
2024/01/02 00:02:37;;;;;;;;;;;;;;;;;;5072308;28;19913;-71
2024/01/02 00:05:03;;;;;;;;;;;;;;;;;;5071972;28;20361;-70
2024/01/02 00:07:29;;;;;;;;;;;;;;;;;;5072235;28;19932;-71
2024/01/02 00:09:55;;;;;;;;;;;;;;;;;;5075650;28;19908;-70
2024/01/02 00:12:22;;;;;;;;;;;;;;;;;;5076203;28;19913;-71
2024/01/02 00:14:48;;;;;;;;;;;;;;;;;;5075794;28;19922;-71
2024/01/02 00:17:14;;;;;;;;;;;;;;;;;;5091600;28;19912;-71
2024/01/02 00:19:40;;;;;;;;;;;;;;;;;;5075294;28;19915;-71
2024/01/02 00:22:06;;;;;;;;;;;;;;;;;;5076024;28;20319;-71
2024/01/02 00:24:32;;;;;;;;;;;;;;;;;;5075633;28;19916;-71
2024/01/02 00:26:59;;;;;;;;;;;;;;;;;;5091523;28;19909;-71
2024/01/02 00:29:25;;;;;;;;;;;;;;;;;;5075723;28;19908;-71
2024/01/02 00:31:51;;;;;;;;;;;;;;;;;;5075484;28;19913;-71
2024/01/02 00:34:17;;;;;;;;;;;;;;;;;;5075128;28;19914;-71
2024/01/02 00:36:43;;;;;;;;;;;;;;;;;;5075796;28;19912;-70
2024/01/02 00:39:10;;;;;;;;;;;;;;;;;;5075532;28;19954;-71
2024/01/02 00:41:36;;;;;;;;;;;;;;;;;;5075395;28;19912;-71
2024/01/02 00:44:03;;;;;;;;;;;;;;;;;;5075138;28;19912;-71
2024/01/02 00:46:29;;;;;;;;;;;;;;;;;;5075198;28;19908;-71
2024/01/02 00:48:56;;;;;;;;;;;;;;;;;;5074757;28;20349;-71
2024/01/02 00:51:22;;;;;;;;;;;;;;;;;;5075587;28;19913;-71
2024/01/02 00:53:48;;;;;;;;;;;;;;;;;;5057248;28;19909;-71
2024/01/02 00:56:14;;;;;;;;;;;;;;;;;;5074804;28;20335;-71
2024/01/02 00:58:40;;;;;;;;;;;;;;;;;;5075445;28;19912;-71
2024/01/02 01:01:07;;;;;;;;;;;;;;;;;;5075328;28;19909;-71
2024/01/02 01:03:33;;;;;;;;;;;;;;;;;;5074898;28;20029;-71
2024/01/02 01:05:59;;;;;;;;;;;;;;;;;;5074945;28;19921;-71
2024/01/02 01:08:25;;;;;;;;;;;;;;;;;;5074866;28;19908;-71
2024/01/02 01:10:51;;;;;;;;;;;;;;;;;;5074872;28;19913;-70
2024/01/02 01:13:18;;;;;;;;;;;;;;;;;;5075033;28;19915;-71
2024/01/02 01:15:44;;;;;;;;;;;;;;;;;;5074679;28;19916;-71
2024/01/02 01:18:10;;;;;;;;;;;;;;;;;;5074323;28;19915;-71
2024/01/02 01:20:36;;;;;;;;;;;;;;;;;;5073340;28;19909;-71
2024/01/02 01:23:02;;;;;;;;;;;;;;;;;;5056685;28;20293;-71
2024/01/02 01:25:29;;;;;;;;;;;;;;;;;;5074529;28;19927;-71
2024/01/02 01:27:55;;;;;;;;;;;;;;;;;;5074492;28;20349;-71
2024/01/02 01:30:21;;;;;;;;;;;;;;;;;;5074752;28;19908;-71
2024/01/02 01:32:47;;;;;;;;;;;;;;;;;;5073942;28;20307;-70
2024/01/02 01:35:13;;;;;;;;;;;;;;;;;;5074512;28;19908;-71
2024/01/02 01:37:39;;;;;;;;;;;;;;;;;;5074554;28;19908;-71
2024/01/02 01:40:05;;;;;;;;;;;;;;;;;;5072889;28;20013;-70
2024/01/02 01:42:32;;;;;;;;;;;;;;;;;;5074192;28;19922;-71
2024/01/02 01:44:58;;;;;;;;;;;;;;;;;;5073919;28;19917;-71
2024/01/02 01:47:24;;;;;;;;;;;;;;;;;;5073633;28;19923;-71
2024/01/02 01:49:50;;;;;;;;;;;;;;;;;;5073992;28;20365;-71
2024/01/02 01:52:19;;;;;;;;;;;;;;;;;;5056515;28;19912;-70
2024/01/02 01:54:45;;;;;;;;;;;;;;;;;;5073918;28;20276;-71
2024/01/02 01:57:13;;;;;;;;;;;;;;;;;;5073707;28;19908;-71
2024/01/02 01:59:39;;;;;;;;;;;;;;;;;;5074124;28;19909;-70
2024/01/02 02:02:05;;;;;;;;;;;;;;;;;;5073825;28;19908;-71
2024/01/02 02:04:31;;;;;;;;;;;;;;;;;;5073600;28;20266;-70
2024/01/02 02:06:58;;;;;;;;;;;;;;;;;;5073629;28;20293;-71
2024/01/02 02:09:24;;;;;;;;;;;;;;;;;;5073589;28;19923;-71
2024/01/02 02:11:50;;;;;;;;;;;;;;;;;;5073572;28;19914;-71
2024/01/02 02:14:16;;;;;;;;;;;;;;;;;;5073490;28;19913;-71
2024/01/02 02:16:43;;;;;;;;;;;;;;;;;;5073189;28;19908;-71
2024/01/02 02:19:09;;;;;;;;;;;;;;;;;;5073534;28;20292;-71
2024/01/02 02:21:35;;;;;;;;;;;;;;;;;;5073528;28;19915;-71
2024/01/02 02:24:02;;;;;;;;;;;;;;;;;;5073254;28;19926;-71
2024/01/02 02:26:28;;;;;;;;;;;;;;;;;;5073618;28;19961;-71
2024/01/02 02:28:54;;;;;;;;;;;;;;;;;;5073075;28;19908;-71
2024/01/02 02:31:20;;;;;;;;;;;;;;;;;;5073046;28;19908;-71
2024/01/02 02:33:46;;;;;;;;;;;;;;;;;;5073362;28;19962;-71
2024/01/02 02:36:13;;;;;;;;;;;;;;;;;;5073109;28;19934;-71
2024/01/02 02:38:39;;;;;;;;;;;;;;;;;;5073242;28;19909;-71
2024/01/02 02:41:05;;;;;;;;;;;;;;;;;;5073246;28;19912;-71
2024/01/02 02:43:31;;;;;;;;;;;;;;;;;;5072719;28;19908;-71
2024/01/02 02:45:57;;;;;;;;;;;;;;;;;;5073079;28;19908;-71
2024/01/02 02:48:24;;;;;;;;;;;;;;;;;;5072997;28;20474;-70
2024/01/02 02:50:50;;;;;;;;;;;;;;;;;;5073414;28;20334;-71
2024/01/02 02:53:16;;;;;;;;;;;;;;;;;;5073043;28;19908;-71
2024/01/02 02:55:43;;;;;;;;;;;;;;;;;;5073260;28;19908;-70
2024/01/02 02:58:09;;;;;;;;;;;;;;;;;;5072549;28;19913;-71
2024/01/02 03:00:35;;;;;;;;;;;;;;;;;;5073009;28;20288;-72
2024/01/02 03:03:01;;;;;;;;;;;;;;;;;;5073004;28;19908;-70
2024/01/02 03:05:28;;;;;;;;;;;;;;;;;;5072852;28;20442;-70
2024/01/02 03:07:54;;;;;;;;;;;;;;;;;;5072880;28;20308;-70
2024/01/02 03:10:20;;;;;;;;;;;;;;;;;;5073199;28;19913;-71
2024/01/02 03:12:46;;;;;;;;;;;;;;;;;;5072694;28;19914;-71
2024/01/02 03:15:13;;;;;;;;;;;;;;;;;;5072778;28;20335;-71
2024/01/02 03:17:39;;;;;;;;;;;;;;;;;;5073240;28;19962;-71
2024/01/02 03:20:05;;;;;;;;;;;;;;;;;;5072735;28;19908;-71
2024/01/02 03:22:31;;;;;;;;;;;;;;;;;;5072812;28;19908;-71
2024/01/02 03:24:58;;;;;;;;;;;;;;;;;;5072719;28;19922;-71
2024/01/02 03:27:24;;;;;;;;;;;;;;;;;;5072482;28;20285;-71
2024/01/02 03:29:50;;;;;;;;;;;;;;;;;;5073123;28;19915;-70
2024/01/02 03:32:16;;;;;;;;;;;;;;;;;;5072988;28;19912;-70
2024/01/02 03:34:42;;;;;;;;;;;;;;;;;;5072944;28;19912;-71
2024/01/02 03:37:09;;;;;;;;;;;;;;;;;;5072932;28;19908;-71
2024/01/02 03:39:35;;;;;;;;;;;;;;;;;;5072656;28;20358;-71
2024/01/02 03:42:01;;;;;;;;;;;;;;;;;;5072547;28;19931;-70
2024/01/02 03:44:27;;;;;;;;;;;;;;;;;;5075480;28;19962;-71
2024/01/02 03:46:56;;;;;;;;;;;;;;;;;;5076440;28;19915;-71
2024/01/02 03:49:23;;;;;;;;;;;;;;;;;;5076231;28;19913;-71
2024/01/02 03:51:49;;;;;;;;;;;;;;;;;;5076532;28;19930;-70
2024/01/02 03:54:15;;;;;;;;;;;;;;;;;;5076519;28;19909;-71
2024/01/02 03:56:41;;;;;;;;;;;;;;;;;;5075739;28;20396;-71
2024/01/02 03:59:07;;;;;;;;;;;;;;;;;;5076463;28;19913;-71
2024/01/02 04:01:33;;;;;;;;;;;;;;;;;;5076125;28;19908;-71
2024/01/02 04:04:00;;;;;;;;;;;;;;;;;;5075890;28;20381;-71
2024/01/02 04:06:26;;;;;;;;;;;;;;;;;;5075819;28;19926;-71
2024/01/02 04:08:52;;;;;;;;;;;;;;;;;;5076071;28;19908;-71
2024/01/02 04:11:18;;;;;;;;;;;;;;;;;;5091206;28;20319;-71
2024/01/02 04:13:44;;;;;;;;;;;;;;;;;;5076252;28;19914;-71
2024/01/02 04:16:10;;;;;;;;;;;;;;;;;;5075893;28;19915;-71
2024/01/02 04:18:37;;;;;;;;;;;;;;;;;;5075856;28;19935;-71
2024/01/02 04:21:03;;;;;;;;;;;;;;;;;;5076056;28;19915;-71
2024/01/02 04:23:29;;;;;;;;;;;;;;;;;;5076032;28;19918;-71
2024/01/02 04:25:58;;;;;;;;;;;;;;;;;;5075225;28;19920;-71
2024/01/02 04:28:24;;;;;;;;;;;;;;;;;;5075998;28;19912;-71
2024/01/02 04:30:51;;;;;;;;;;;;;;;;;;5075577;28;19912;-71
2024/01/02 04:33:17;;;;;;;;;;;;;;;;;;5075549;28;19915;-71
2024/01/02 04:35:43;;;;;;;;;;;;;;;;;;5075464;28;20369;-70
2024/01/02 04:38:09;;;;;;;;;;;;;;;;;;5075495;28;20369;-71
2024/01/02 04:40:35;;;;;;;;;;;;;;;;;;5075174;28;19915;-71
2024/01/02 04:43:02;;;;;;;;;;;;;;;;;;5075367;28;19962;-71
2024/01/02 04:45:28;;;;;;;;;;;;;;;;;;5075241;28;19924;-71
2024/01/02 04:47:54;;;;;;;;;;;;;;;;;;5090717;28;20395;-71
2024/01/02 04:50:20;;;;;;;;;;;;;;;;;;5075273;28;19919;-71
2024/01/02 04:52:46;;;;;;;;;;;;;;;;;;5075224;28;19912;-71
2024/01/02 04:55:13;;;;;;;;;;;;;;;;;;5074445;28;19912;-71
2024/01/02 04:57:39;;;;;;;;;;;;;;;;;;5075418;28;19915;-71
2024/01/02 05:00:06;;;;;;;;;;;;;;;;;;5075047;28;19909;-71
2024/01/02 05:02:32;;;;;;;;;;;;;;;;;;5075091;28;20228;-71
2024/01/02 05:04:58;;;;;;;;;;;;;;;;;;5074752;28;20369;-71
2024/01/02 05:07:25;;;;;;;;;;;;;;;;;;5090410;28;20319;-70
2024/01/02 05:09:52;;;;;;;;;;;;;;;;;;5074811;28;19908;-71
2024/01/02 05:12:18;;;;;;;;;;;;;;;;;;5090350;28;19909;-71
2024/01/02 05:14:44;;;;;;;;;;;;;;;;;;5074730;28;19919;-71
2024/01/02 05:17:10;;;;;;;;;;;;;;;;;;5074762;28;19915;-71
2024/01/02 05:19:37;;;;;;;;;;;;;;;;;;5074927;28;19909;-71
2024/01/02 05:22:03;;;;;;;;;;;;;;;;;;5074504;28;20374;-72
2024/01/02 05:24:30;;;;;;;;;;;;;;;;;;5074098;28;19912;-71
2024/01/02 05:26:56;;;;;;;;;;;;;;;;;;5074476;28;20431;-71
2024/01/02 05:29:22;;;;;;;;;;;;;;;;;;5074913;28;19908;-71
2024/01/02 05:31:49;;;;;;;;;;;;;;;;;;5074722;28;19909;-71
2024/01/02 05:34:15;;;;;;;;;;;;;;;;;;5074229;28;19919;-71
2024/01/02 05:36:41;;;;;;;;;;;;;;;;;;5074336;28;19909;-71
2024/01/02 05:39:07;;;;;;;;;;;;;;;;;;5073952;28;20323;-71
2024/01/02 05:41:34;;;;;;;;;;;;;;;;;;5090222;28;19919;-71
2024/01/02 05:44:00;;;;;;;;;;;;;;;;;;5074054;28;19922;-71
2024/01/02 05:46:26;;;;;;;;;;;;;;;;;;5074132;28;19908;-71
2024/01/02 05:48:52;;;;;;;;;;;;;;;;;;5073949;28;19908;-71
2024/01/02 05:51:18;;;;;;;;;;;;;;;;;;5074026;28;19912;-71
2024/01/02 05:53:44;;;;;;;;;;;;;;;;;;5073995;28;19912;-71
2024/01/02 05:56:12;;;;;;;;;;;;;;;;;;5073920;28;19912;-71
2024/01/02 05:58:38;;;;;;;;;;;;;;;;;;5073716;28;19915;-71
2024/01/02 06:01:04;;;;;;;;;;;;;;;;;;5073869;28;19912;-71
2024/01/02 06:03:32;;;;;;;;;;;;;;;;;;5073767;28;19912;-71
2024/01/02 06:05:59;;;;;;;;;;;;;;;;;;5072871;28;20370;-71
2024/01/02 06:08:25;;;;;;;;;;;;;;;;;;5073753;28;19912;-71
2024/01/02 06:10:51;;;;;;;;;;;;;;;;;;5073825;28;19908;-71
2024/01/02 06:13:17;;;;;;;;;;;;;;;;;;5073521;28;19920;-71
2024/01/02 06:15:43;;;;;;;;;;;;;;;;;;5073982;28;19908;-71
2024/01/02 06:18:10;;;;;;;;;;;;;;;;;;5073577;28;19915;-71
2024/01/02 06:20:36;;;;;;;;;;;;;;;;;;5073541;28;19915;-71
2024/01/02 06:23:02;;;;;;;;;;;;;;;;;;5088753;28;19909;-71
2024/01/02 06:25:28;;;;;;;;;;;;;;;;;;5073241;28;20327;-71
2024/01/02 06:27:55;;;;;;;;;;;;;;;;;;5089114;28;19916;-70
2024/01/02 06:30:22;;;;;;;;;;;;;;;;;;5089042;28;19923;-71
2024/01/02 06:32:48;;;;;;;;;;;;;;;;;;5073316;28;19908;-71
2024/01/02 06:35:14;;;;;;;;;;;;;;;;;;5073435;28;19935;-71
2024/01/02 06:37:40;;;;;;;;;;;;;;;;;;5073352;28;19909;-71
2024/01/02 06:40:07;;;;;;;;;;;;;;;;;;5073286;28;19915;-71
2024/01/02 06:42:33;;;;;;;;;;;;;;;;;;5073269;28;19908;-71
2024/01/02 06:44:59;;;;;;;;;;;;;;;;;;5072965;28;19923;-71
2024/01/02 06:47:25;;;;;;;;;;;;;;;;;;5072982;28;19923;-71
2024/01/02 06:49:52;;;;;;;;;;;;;;;;;;5073116;28;19909;-73
2024/01/02 06:52:18;;;;;;;;;;;;;;;;;;5073313;28;19908;-71
2024/01/02 06:54:44;;;;;;;;;;;;;;;;;;5055452;28;19965;-71
2024/01/02 06:57:10;;;;;;;;;;;;;;;;;;5073201;28;19909;-71
2024/01/02 06:59:37;;;;;;;;;;;;;;;;;;5072920;28;20362;-71
2024/01/02 07:02:03;;;;;;;;;;;;;;;;;;5072942;28;20330;-71
2024/01/02 07:04:29;;;;;;;;;;;;;;;;;;5072458;28;19920;-71
2024/01/02 07:06:56;;;;;;;;;;;;;;;;;;5072756;28;20289;-71
2024/01/02 07:09:22;;;;;;;;;;;;;;;;;;5055206;28;19909;-71
2024/01/02 07:11:48;;;;;;;;;;;;;;;;;;5073202;28;19909;-71
2024/01/02 07:14:14;;;;;;;;;;;;;;;;;;5072800;28;19917;-71
2024/01/02 07:16:40;;;;;;;;;;;;;;;;;;5072893;28;19908;-71
2024/01/02 07:19:06;;;;;;;;;;;;;;;;;;5074891;28;19908;-71
2024/01/02 07:21:32;;;;;;;;;;;;;;;;;;5076936;28;19912;-71
2024/01/02 07:23:59;;;;;;;;;;;;;;;;;;5076636;28;19909;-71
2024/01/02 07:26:25;;;;;;;;;;;;;;;;;;5076851;28;20357;-71
2024/01/02 07:28:51;;;;;;;;;;;;;;;;;;5077061;28;19953;-71
2024/01/02 07:31:18;;;;;;;;;;;;;;;;;;5076945;28;19908;-71
2024/01/02 07:33:44;;;;;;;;;;;;;;;;;;5076210;28;19919;-71
2024/01/02 07:36:10;;;;;;;;;;;;;;;;;;5076663;28;20384;-71
2024/01/02 07:38:37;;;;;;;;;;;;;;;;;;5076524;28;19912;-73
2024/01/02 07:41:05;;;;;;;;;;;;;;;;;;5076556;28;19909;-71
2024/01/02 07:43:32;;;;;;;;;;;;;;;;;;5076759;28;19915;-71
2024/01/02 07:45:58;;;;;;;;;;;;;;;;;;5076279;28;19922;-71
2024/01/02 07:48:24;;;;;;;;;;;;;;;;;;5076349;28;19912;-71
2024/01/02 07:50:50;;;;;;;;;;;;;;;;;;5076390;28;19919;-71
2024/01/02 07:53:19;;;;;;;;;;;;;;;;;;5076211;28;19908;-71
2024/01/02 07:55:46;;;;;;;;;;;;;;;;;;5076126;28;19940;-71
2024/01/02 07:58:12;;;;;;;;;;;;;;;;;;5076176;28;20335;-71
2024/01/02 08:00:38;;;;;;;;;;;;;;;;;;5076478;28;19908;-71
2024/01/02 08:03:04;;;;;;;;;;;;;;;;;;5075775;28;19916;-71
2024/01/02 08:05:30;;;;;;;;;;;;;;;;;;5075886;28;19922;-73
2024/01/02 08:07:56;;;;;;;;;;;;;;;;;;5076031;28;20331;-70
2024/01/02 08:10:23;;;;;;;;;;;;;;;;;;5076083;28;19916;-71
2024/01/02 08:12:49;;;;;;;;;;;;;;;;;;5076352;28;19912;-71
2024/01/02 08:15:15;;;;;;;;;;;;;;;;;;5076059;28;19923;-71
2024/01/02 08:17:41;;;;;;;;;;;;;;;;;;5091577;28;19915;-71
2024/01/02 08:20:09;;;;;;;;;;;;;;;;;;5076071;28;19909;-71
2024/01/02 08:22:35;;;;;;;;;;;;;;;;;;5075685;28;19912;-71
2024/01/02 08:25:01;;;;;;;;;;;;;;;;;;5091410;28;19923;-71
2024/01/02 08:27:27;;;;;;;;;;;;;;;;;;5075532;28;19912;-71
2024/01/02 08:29:54;;;;;;;;;;;;;;;;;;5057412;28;19908;-71
2024/01/02 08:32:21;;;;;;;;;;;;;;;;;;5075238;28;19915;-70
2024/01/02 08:34:48;;;;;;;;;;;;;;;;;;5075445;28;20033;-71
2024/01/02 08:37:15;;;;;;;;;;;;;;;;;;5075825;28;19920;-71
2024/01/02 08:39:41;;;;;;;;;;;;;;;;;;5075491;28;19915;-71
2024/01/02 08:42:07;;;;;;;;;;;;;;;;;;5075491;28;19953;-71
2024/01/02 08:44:34;;;;;;;;;;;;;;;;;;5075197;28;19961;-71
2024/01/02 08:47:00;;;;;;;;;;;;;;;;;;5074768;28;20369;-71
2024/01/02 08:49:26;;;;;;;;;;;;;;;;;;5069659;28;19924;-71
2024/01/02 08:51:53;;;;;;;;;;;;;;;;;;5074507;28;19919;-71
2024/01/02 08:54:19;;;;;;;;;;;;;;;;;;5074279;28;19909;-71
2024/01/02 08:56:45;;;;;;;;;;;;;;;;;;5074305;28;19912;-71
2024/01/02 08:59:11;;;;;;;;;;;;;;;;;;5073723;28;20300;-71
2024/01/02 09:01:38;;;;;;;;;;;;;;;;;;5073946;28;19912;-71
2024/01/02 09:04:04;;;;;;;;;;;;;;;;;;5074353;28;19908;-71
2024/01/02 09:06:30;;;;;;;;;;;;;;;;;;5074251;28;20374;-71
2024/01/02 09:08:57;;;;;;;;;;;;;;;;;;5074159;28;19908;-71
2024/01/02 09:11:24;;;;;;;;;;;;;;;;;;5074072;28;20383;-71
2024/01/02 09:13:50;;;;;;;;;;;;;;;;;;5073935;28;19915;-71
2024/01/02 09:16:17;;;;;;;;;;;;;;;;;;5073648;28;19915;-71
2024/01/02 09:18:43;;;;;;;;;;;;;;;;;;5073716;28;19913;-71
2024/01/02 09:21:09;;;;;;;;;;;;;;;;;;5056425;28;19908;-71
2024/01/02 09:23:36;;;;;;;;;;;;;;;;;;5073910;28;19908;-71
2024/01/02 09:26:03;;;;;;;;;;;;;;;;;;5073841;28;19922;-71
2024/01/02 09:28:29;;;;;;;;;;;;;;;;;;5073817;28;20376;-71
2024/01/02 09:30:55;;;;;;;;;;;;;;;;;;5073468;28;20274;-71
2024/01/02 09:33:23;;;;;;;;;;;;;;;;;;5073780;28;20388;-71
2024/01/02 09:35:49;;;;;;;;;;;;;;;;;;5073733;28;19913;-71
2024/01/02 09:38:16;;;;;;;;;;;;;;;;;;5073751;28;20029;-71
2024/01/02 09:40:42;;;;;;;;;;;;;;;;;;5072729;28;19913;-71
2024/01/02 09:43:08;;;;;;;;;;;;;;;;;;5073626;28;19909;-71
2024/01/02 09:45:34;;;;;;;;;;;;;;;;;;5073072;28;20276;-71
2024/01/02 09:48:00;;;;;;;;;;;;;;;;;;5073521;28;19913;-71
2024/01/02 09:50:26;;;;;;;;;;;;;;;;;;5073402;28;19912;-71
2024/01/02 09:52:53;;;;;;;;;;;;;;;;;;5072830;28;19919;-71
2024/01/02 09:55:19;;;;;;;;;;;;;;;;;;5072845;28;20017;-71
2024/01/02 09:57:46;;;;;;;;;;;;;;;;;;5073553;28;19908;-71
2024/01/02 10:00:12;;;;;;;;;;;;;;;;;;5072582;28;19912;-71
2024/01/02 10:02:38;;;;;;;;;;;;;;;;;;5073031;28;19913;-71
2024/01/02 10:05:08;;;;;;;;;;;;;;;;;;5073163;28;19920;-71
2024/01/02 10:07:34;;;;;;;;;;;;;;;;;;5072197;28;19928;-76
2024/01/02 10:10:03;;;;;;;;;;;;;;;;;;5072806;28;19917;-75
2024/01/02 10:12:30;;;;;;;;;;;;;;;;;;5072912;28;20361;-75
2024/01/02 10:14:56;;;;;;;;;;;;;;;;;;5072727;28;19931;-76
2024/01/02 10:17:22;;;;;;;;;;;;;;;;;;5072788;28;19915;-76
2024/01/02 10:19:48;;;;;;;;;;;;;;;;;;5072825;28;19908;-75
2024/01/02 10:22:15;;;;;;;;;;;;;;;;;;5072813;28;20186;-75
2024/01/02 10:24:41;;;;;;;;;;;;;;;;;;5072570;28;19918;-84
2024/01/02 10:27:07;;;;;;;;;;;;;;;;;;5072664;28;20377;-76
2024/01/02 10:29:33;;;;;;;;;;;;;;;;;;5072192;28;20296;-76
2024/01/02 10:31:59;;;;;;;;;;;;;;;;;;5072533;28;19908;-75
2024/01/02 10:34:26;;;;;;;;;;;;;;;;;;5072599;28;19908;-75
2024/01/02 10:36:52;;;;;;;;;;;;;;;;;;5072642;28;20289;-75
2024/01/02 10:39:18;;;;;;;;;;;;;;;;;;5088398;28;19915;-75
2024/01/02 10:41:45;;;;;;;;;;;;;;;;;;5072454;28;19919;-75
2024/01/02 10:44:11;;;;;;;;;;;;;;;;;;5072014;28;19922;-75
2024/01/02 10:46:37;;;;;;;;;;;;;;;;;;5072606;28;19915;-75
2024/01/02 10:49:04;;;;;;;;;;;;;;;;;;5072449;28;19908;-75
2024/01/02 10:51:30;;;;;;;;;;;;;;;;;;5072224;28;19912;-76
2024/01/02 10:53:56;;;;;;;;;;;;;;;;;;5072448;28;19908;-76
2024/01/02 10:56:22;;;;;;;;;;;;;;;;;;5071965;28;19961;-76
2024/01/02 10:58:49;;;;;;;;;;;;;;;;;;5072424;28;20392;-75
2024/01/02 11:01:16;;;;;;;;;;;;;;;;;;5072480;28;19918;-75
2024/01/02 11:03:43;;;;;;;;;;;;;;;;;;5072286;28;19915;-75
2024/01/02 11:06:09;;;;;;;;;;;;;;;;;;5071883;28;19954;-76
2024/01/02 11:08:35;;;;;;;;;;;;;;;;;;5072425;28;20388;-75
2024/01/02 11:11:01;;;;;;;;;;;;;;;;;;5071850;28;19909;-75
2024/01/02 11:13:28;;;;;;;;;;;;;;;;;;5072101;28;20300;-75
2024/01/02 11:15:55;;;;;;;;;;;;;;;;;;5072018;28;19908;-75
2024/01/02 11:18:21;;;;;;;;;;;;;;;;;;5072027;28;19912;-76
2024/01/02 11:20:47;;;;;;;;;;;;;;;;;;5072046;28;20266;-75
2024/01/02 11:23:14;;;;;;;;;;;;;;;;;;5072186;28;20407;-75
2024/01/02 11:25:41;;;;;;;;;;;;;;;;;;5072073;28;19920;-76
2024/01/02 11:28:07;;;;;;;;;;;;;;;;;;5071989;28;19913;-75
2024/01/02 11:30:37;;;;;;;;;;;;;;;;;;5072080;28;19908;-75
2024/01/02 11:33:03;;;;;;;;;;;;;;;;;;5072151;28;20381;-75
2024/01/02 11:35:29;;;;;;;;;;;;;;;;;;5072030;28;19920;-76
2024/01/02 11:37:55;;;;;;;;;;;;;;;;;;5071883;28;19914;-75
2024/01/02 11:40:22;;;;;;;;;;;;;;;;;;5071951;28;19915;-76
2024/01/02 11:42:48;;;;;;;;;;;;;;;;;;5072060;28;19912;-74
2024/01/02 11:45:15;;;;;;;;;;;;;;;;;;5071957;28;19926;-75
2024/01/02 11:47:41;;;;;;;;;;;;;;;;;;5087361;28;19908;-75
2024/01/02 11:50:07;;;;;;;;;;;;;;;;;;5053682;28;19912;-75
2024/01/02 11:52:33;;;;;;;;;;;;;;;;;;5072068;28;19909;-76
2024/01/02 11:55:00;;;;;;;;;;;;;;;;;;5071350;28;19908;-75
2024/01/02 11:57:26;;;;;;;;;;;;;;;;;;5072051;28;19923;-75
2024/01/02 11:59:52;;;;;;;;;;;;;;;;;;5087369;28;19915;-75
2024/01/02 12:02:19;;;;;;;;;;;;;;;;;;5071612;28;19918;-75
2024/01/02 12:04:46;;;;;;;;;;;;;;;;;;5073478;28;19921;-76
2024/01/02 12:07:13;;;;;;;;;;;;;;;;;;5075130;28;19920;-77
2024/01/02 12:09:40;;;;;;;;;;;;;;;;;;5075281;28;19919;-76
2024/01/02 12:12:06;;;;;;;;;;;;;;;;;;5075409;28;19909;-75
2024/01/02 12:14:32;;;;;;;;;;;;;;;;;;5075198;28;20369;-75
2024/01/02 12:16:59;;;;;;;;;;;;;;;;;;5075168;28;20708;-76
2024/01/02 12:19:25;;;;;;;;;;;;;;;;;;5074958;28;20269;-75
2024/01/02 12:21:51;;;;;;;;;;;;;;;;;;5090698;28;19919;-76
2024/01/02 12:24:17;;;;;;;;;;;;;;;;;;5074700;28;19916;-75
2024/01/02 12:26:44;;;;;;;;;;;;;;;;;;5074990;28;19908;-75
2024/01/02 12:29:10;;;;;;;;;;;;;;;;;;5075031;28;20288;-76
2024/01/02 12:31:36;;;;;;;;;;;;;;;;;;5075117;28;20309;-76
2024/01/02 12:34:02;;;;;;;;;;;;;;;;;;5075078;28;19908;-76
2024/01/02 12:36:28;;;;;;;;;;;;;;;;;;5074786;28;19913;-76
2024/01/02 12:38:55;;;;;;;;;;;;;;;;;;5074467;28;20387;-75
2024/01/02 12:41:21;;;;;;;;;;;;;;;;;;5074704;28;20285;-76
2024/01/02 12:43:48;;;;;;;;;;;;;;;;;;5074627;28;20288;-76
2024/01/02 12:46:17;;;;;;;;;;;;;;;;;;5090136;28;19921;-75
2024/01/02 12:48:43;;;;;;;;;;;;;;;;;;5074686;28;19912;-76
2024/01/02 12:51:09;;;;;;;;;;;;;;;;;;5090816;28;19912;-76
2024/01/02 12:53:35;;;;;;;;;;;;;;;;;;5073888;28;19921;-76
2024/01/02 12:56:04;;;;;;;;;;;;;;;;;;5074448;28;19912;-76
2024/01/02 12:58:31;;;;;;;;;;;;;;;;;;5074578;28;20374;-76
2024/01/02 13:00:57;;;;;;;;;;;;;;;;;;5074362;28;19954;-76
2024/01/02 13:03:24;;;;;;;;;;;;;;;;;;5074611;28;19915;-76
2024/01/02 13:05:51;;;;;;;;;;;;;;;;;;5073986;28;19920;-77
2024/01/02 13:08:17;;;;;;;;;;;;;;;;;;5073904;28;19938;-77
2024/01/02 13:10:43;;;;;;;;;;;;;;;;;;5074235;28;19919;-77
2024/01/02 13:13:09;;;;;;;;;;;;;;;;;;5074206;28;19910;-78
2024/01/02 13:15:36;;;;;;;;;;;;;;;;;;5074251;28;19924;-77
2024/01/02 13:18:02;;;;;;;;;;;;;;;;;;5073706;28;19908;-77
2024/01/02 13:20:28;;;;;;;;;;;;;;;;;;5074327;28;19915;-76
2024/01/02 13:22:54;;;;;;;;;;;;;;;;;;5073878;28;19908;-77
2024/01/02 13:25:25;;;;;;;;;;;;;;;;;;5073678;28;19920;-77
2024/01/02 13:27:54;;;;;;;;;;;;;;;;;;5074065;28;19912;-77
2024/01/02 13:30:20;;;;;;;;;;;;;;;;;;5073864;28;19914;-77
2024/01/02 13:32:46;;;;;;;;;;;;;;;;;;5074112;28;19913;-77
2024/01/02 13:35:12;;;;;;;;;;;;;;;;;;5073918;28;19915;-77
2024/01/02 13:37:38;;;;;;;;;;;;;;;;;;5073827;28;19908;-77
2024/01/02 13:40:05;;;;;;;;;;;;;;;;;;5073405;28;19990;-77
2024/01/02 13:42:34;;;;;;;;;;;;;;;;;;5073918;28;19908;-76
2024/01/02 13:45:00;;;;;;;;;;;;;;;;;;5073614;28;19924;-76
2024/01/02 13:47:26;;;;;;;;;;;;;;;;;;5073571;28;20391;-76
2024/01/02 13:49:54;;;;;;;;;;;;;;;;;;5073813;28;19981;-76
2024/01/02 13:52:20;;;;;;;;;;;;;;;;;;5073094;28;19909;-76
2024/01/02 13:54:47;;;;;;;;;;;;;;;;;;5073583;28;20280;-76
2024/01/02 13:57:13;;;;;;;;;;;;;;;;;;5073244;28;19908;-76
2024/01/02 13:59:39;;;;;;;;;;;;;;;;;;5073336;28;20354;-76
2024/01/02 14:02:05;;;;;;;;;;;;;;;;;;5073040;28;19918;-76
2024/01/02 14:04:31;;;;;;;;;;;;;;;;;;5073012;28;19916;-76
2024/01/02 14:07:01;;;;;;;;;;;;;;;;;;5071865;28;19920;-76
2024/01/02 14:09:28;;;;;;;;;;;;;;;;;;5071591;28;19961;-76
2024/01/02 14:11:56;;;;;;;;;;;;;;;;;;5072190;28;20588;-76
2024/01/02 14:14:22;;;;;;;;;;;;;;;;;;5072863;28;19913;-75
2024/01/02 14:16:48;;;;;;;;;;;;;;;;;;5073141;28;19908;-75
2024/01/02 14:19:15;;;;;;;;;;;;;;;;;;5072816;28;19912;-74
2024/01/02 14:21:41;;;;;;;;;;;;;;;;;;5072413;28;19909;-76
2024/01/02 14:24:07;;;;;;;;;;;;;;;;;;5072633;28;19908;-76
2024/01/02 14:26:33;;;;;;;;;;;;;;;;;;5072289;28;19920;-76
2024/01/02 14:29:06;;;;;;;;;;;;;;;;;;5055061;28;19908;-75
2024/01/02 14:31:33;;;;;;;;;;;;;;;;;;5072645;28;19986;-76
2024/01/02 14:33:59;;;;;;;;;;;;;;;;;;5072016;28;19969;-76
2024/01/02 14:36:26;;;;;;;;;;;;;;;;;;5072995;28;19938;-76
2024/01/02 14:38:52;;;;;;;;;;;;;;;;;;5072505;28;20369;-75
2024/01/02 14:41:19;;;;;;;;;;;;;;;;;;5072519;28;19982;-76
2024/01/02 14:43:45;;;;;;;;;;;;;;;;;;5072368;28;19908;-75
2024/01/02 14:46:12;;;;;;;;;;;;;;;;;;5072277;28;20324;-75
2024/01/02 14:48:38;;;;;;;;;;;;;;;;;;5071999;28;19908;-76
2024/01/02 14:51:04;;;;;;;;;;;;;;;;;;5072482;28;19912;-76
2024/01/02 14:53:30;;;;;;;;;;;;;;;;;;5072872;28;19912;-75
2024/01/02 14:55:56;;;;;;;;;;;;;;;;;;5072046;28;20369;-76
2024/01/02 14:58:23;;;;;;;;;;;;;;;;;;5072674;28;19908;-76
2024/01/02 15:00:49;;;;;;;;;;;;;;;;;;5072475;28;19912;-76
2024/01/02 15:03:15;;;;;;;;;;;;;;;;;;5087264;28;19915;-76
2024/01/02 15:05:41;;;;;;;;;;;;;;;;;;5072004;28;20366;-76
2024/01/02 15:08:08;;;;;;;;;;;;;;;;;;5072219;28;19912;-75
2024/01/02 15:10:34;;;;;;;;;;;;;;;;;;5072191;28;19908;-76
2024/01/02 15:13:00;;;;;;;;;;;;;;;;;;5072249;28;19919;-76
2024/01/02 15:15:26;;;;;;;;;;;;;;;;;;5072034;28;20288;-75
2024/01/02 15:17:53;;;;;;;;;;;;;;;;;;5071693;28;19908;-75
2024/01/02 15:20:19;;;;;;;;;;;;;;;;;;5072501;28;19969;-75
2024/01/02 15:22:45;;;;;;;;;;;;;;;;;;5087854;28;19915;-76
2024/01/02 15:25:11;;;;;;;;;;;;;;;;;;5087527;28;19971;-76
2024/01/02 15:27:37;;;;;;;;;;;;;;;;;;5072168;28;19915;-76
2024/01/02 15:30:04;;;;;;;;;;;;;;;;;;5071779;28;19915;-76
2024/01/02 15:32:31;;;;;;;;;;;;;;;;;;5071781;28;19908;-76
2024/01/02 15:34:57;;;;;;;;;;;;;;;;;;5071888;28;19915;-75
2024/01/02 15:37:24;;;;;;;;;;;;;;;;;;5071953;28;19908;-75
2024/01/02 15:39:50;;;;;;;;;;;;;;;;;;5073972;28;19919;-75
2024/01/02 15:42:17;;;;;;;;;;;;;;;;;;5075714;28;19914;-74
2024/01/02 15:44:43;;;;;;;;;;;;;;;;;;5057861;28;19921;-74
2024/01/02 15:47:09;;;;;;;;;;;;;;;;;;5075534;28;19908;-74
2024/01/02 15:49:35;;;;;;;;;;;;;;;;;;5075704;28;19919;-73
2024/01/02 15:52:03;;;;;;;;;;;;;;;;;;5075606;28;19909;-74
2024/01/02 15:54:29;;;;;;;;;;;;;;;;;;5075709;28;20407;-74
2024/01/02 15:56:55;;;;;;;;;;;;;;;;;;5075740;28;19920;-74
2024/01/02 15:59:21;;;;;;;;;;;;;;;;;;5076005;28;19908;-74
2024/01/02 16:01:47;;;;;;;;;;;;;;;;;;5075413;28;19909;-73
2024/01/02 16:04:14;;;;;;;;;;;;;;;;;;5075630;28;19908;-74
2024/01/02 16:06:40;;;;;;;;;;;;;;;;;;5075301;28;19921;-74
2024/01/02 16:09:06;;;;;;;;;;;;;;;;;;5075421;28;19913;-74
2024/01/02 16:11:32;;;;;;;;;;;;;;;;;;5075453;28;20422;-74
2024/01/02 16:13:58;;;;;;;;;;;;;;;;;;5075161;28;20280;-74
2024/01/02 16:16:25;;;;;;;;;;;;;;;;;;5075347;28;19935;-74
2024/01/02 16:18:51;;;;;;;;;;;;;;;;;;5091213;28;19962;-74
2024/01/02 16:21:17;;;;;;;;;;;;;;;;;;5075075;28;19908;-74
2024/01/02 16:23:43;;;;;;;;;;;;;;;;;;5075203;28;19913;-74
2024/01/02 16:26:09;;;;;;;;;;;;;;;;;;5074947;28;19924;-74
2024/01/02 16:28:36;;;;;;;;;;;;;;;;;;5074958;28;19915;-74
2024/01/02 16:31:02;;;;;;;;;;;;;;;;;;5074749;28;19915;-74
2024/01/02 16:33:28;;;;;;;;;;;;;;;;;;5074755;28;20357;-74
2024/01/02 16:35:54;;;;;;;;;;;;;;;;;;5075108;28;19912;-74
2024/01/02 16:38:20;;;;;;;;;;;;;;;;;;5075190;28;19908;-74